createdAt,value
2023-02-03T00:02:46.177Z,12.45
2023-02-03T00:05:48.540Z,10.73
2023-02-03T00:08:54.840Z,7.22
2023-02-03T00:11:56.285Z,11.75
2023-02-03T00:14:57.711Z,10.13
2023-02-03T00:17:59.096Z,8.87
2023-02-03T00:21:00.506Z,11.27
2023-02-03T00:24:02.034Z,13.70
2023-02-03T00:27:03.549Z,9.00
2023-02-03T00:30:05.564Z,7.30
2023-02-03T00:33:07.037Z,8.65
2023-02-03T00:36:09.232Z,9.10
2023-02-03T00:39:10.722Z,8.13
2023-02-03T00:42:12.221Z,8.80
2023-02-03T00:45:13.708Z,9.23
2023-02-03T00:48:15.190Z,10.00
2023-02-03T00:51:18.870Z,9.50
2023-02-03T00:54:20.412Z,7.20
2023-02-03T00:57:21.830Z,10.87
2023-02-03T01:00:24.155Z,7.28
2023-02-03T01:03:25.989Z,7.43
2023-02-03T01:06:28.250Z,10.48
2023-02-03T01:09:34.274Z,8.93
2023-02-03T01:12:35.702Z,8.85
2023-02-03T01:15:37.219Z,9.00
2023-02-03T01:18:39.396Z,8.40
2023-02-03T01:21:40.815Z,5.55
2023-02-03T01:24:42.500Z,6.85
2023-02-03T01:27:44.246Z,9.35
2023-02-03T01:30:45.796Z,8.23
2023-02-03T01:33:48.668Z,8.45
2023-02-03T01:36:50.120Z,6.90
2023-02-03T01:39:51.514Z,7.13
2023-02-03T01:42:52.928Z,7.75
2023-02-03T01:45:54.382Z,6.63
2023-02-03T01:49:15.247Z,7.30
2023-02-03T01:52:17.482Z,7.03
2023-02-03T01:55:27.861Z,6.57
2023-02-03T01:58:33.921Z,6.57
2023-02-03T02:01:37.167Z,7.38
2023-02-03T02:04:55.596Z,5.68
2023-02-03T02:08:00.052Z,9.43
2023-02-03T02:11:02.197Z,7.30
2023-02-03T02:14:03.840Z,7.07
2023-02-03T02:17:18.661Z,5.15
2023-02-03T02:20:49.321Z,7.93
2023-02-03T02:24:17.338Z,6.68
2023-02-03T02:28:07.990Z,5.95
2023-02-03T02:31:15.318Z,6.80
2023-02-03T02:34:28.894Z,7.95
2023-02-03T02:37:36.449Z,6.97
2023-02-03T02:40:46.394Z,4.95
2023-02-03T02:44:03.989Z,7.03
2023-02-03T02:47:14.518Z,5.63
2023-02-03T02:50:26.385Z,4.78
2023-02-03T02:53:33.988Z,5.68
2023-02-03T02:56:39.844Z,5.07
2023-02-03T02:59:41.320Z,8.27
2023-02-03T03:02:42.970Z,4.53
2023-02-03T03:05:50.852Z,4.05
2023-02-03T03:09:00.877Z,2.92
2023-02-03T03:12:20.437Z,3.38
2023-02-03T03:15:26.921Z,1.80
2023-02-03T03:18:33.510Z,2.17
2023-02-03T03:21:41.152Z,2.63
2023-02-03T03:24:52.499Z,3.42
2023-02-03T03:28:01.904Z,2.03
2023-02-03T03:31:04.151Z,1.88
2023-02-03T03:34:05.789Z,2.65
2023-02-03T03:37:17.611Z,2.47
2023-02-03T03:40:25.716Z,3.67
2023-02-03T03:43:32.702Z,3.30
2023-02-03T03:46:43.490Z,4.20
2023-02-03T03:49:47.009Z,7.40
2023-02-03T03:52:50.623Z,5.57
2023-02-03T03:55:54.080Z,4.47
2023-02-03T03:58:58.459Z,5.18
2023-02-03T04:02:04.497Z,6.18
2023-02-03T04:05:07.029Z,6.07
2023-02-03T04:08:08.594Z,5.55
2023-02-03T04:11:10.081Z,4.97
2023-02-03T04:14:11.590Z,5.18
2023-02-03T04:17:13.076Z,7.20
2023-02-03T04:20:15.993Z,6.95
2023-02-03T04:23:17.464Z,7.95
2023-02-03T04:26:19.113Z,7.50
2023-02-03T04:29:20.509Z,9.60
2023-02-03T04:32:21.947Z,10.45
2023-02-03T04:35:23.469Z,7.07
2023-02-03T04:38:25.070Z,9.43
2023-02-03T04:41:26.550Z,6.68
2023-02-03T04:44:27.948Z,8.65
2023-02-03T04:47:29.516Z,10.48
2023-02-03T04:50:31.714Z,9.00
2023-02-03T04:53:33.567Z,7.68
2023-02-03T04:56:35.087Z,6.65
2023-02-03T04:59:36.500Z,9.73
2023-02-03T05:02:37.914Z,10.50
2023-02-03T05:05:39.473Z,6.40
2023-02-03T05:08:40.903Z,7.97
2023-02-03T05:11:42.354Z,8.48
2023-02-03T05:14:43.910Z,9.23
2023-02-03T05:17:45.327Z,10.77
2023-02-03T05:20:46.726Z,9.75
2023-02-03T05:23:48.232Z,8.32
2023-02-03T05:26:49.749Z,10.63
2023-02-03T05:29:51.197Z,7.27
2023-02-03T05:32:52.616Z,9.68
2023-02-03T05:35:54.266Z,7.03
2023-02-03T05:38:55.698Z,11.73
2023-02-03T05:41:58.483Z,12.32
2023-02-03T05:45:00.042Z,9.23
2023-02-03T05:48:04.481Z,8.43
2023-02-03T05:51:06.011Z,8.82
2023-02-03T05:54:08.635Z,10.33
2023-02-03T05:57:10.051Z,9.43
2023-02-03T06:00:12.154Z,7.63
2023-02-03T06:03:13.554Z,8.77
2023-02-03T06:06:16.022Z,11.77
2023-02-03T06:12:18.849Z,9.27
2023-02-03T06:15:20.428Z,9.50
2023-02-03T06:18:22.008Z,8.03
2023-02-03T06:21:23.525Z,12.53
2023-02-03T06:24:24.956Z,8.73
2023-02-03T06:27:26.557Z,11.10
2023-02-03T06:30:28.305Z,9.37
2023-02-03T06:33:30.204Z,7.82
2023-02-03T06:36:31.674Z,12.43
2023-02-03T06:39:33.183Z,13.23
2023-02-03T06:42:34.830Z,10.03
2023-02-03T06:45:36.307Z,13.13
2023-02-03T06:48:37.703Z,12.38
2023-02-03T06:51:39.341Z,9.98
2023-02-03T06:54:41.148Z,9.70
2023-02-03T06:57:44.506Z,14.10
2023-02-03T07:00:45.901Z,12.98
2023-02-03T07:03:47.513Z,9.88
2023-02-03T07:06:49.096Z,11.87
2023-02-03T07:09:50.485Z,12.20
2023-02-03T07:12:51.962Z,9.45
2023-02-03T07:15:53.422Z,11.40
2023-02-03T07:18:54.930Z,9.87
2023-02-03T07:21:56.457Z,9.57
2023-02-03T07:24:57.855Z,11.70
2023-02-03T07:27:59.309Z,8.07
2023-02-03T07:31:01.171Z,10.63
2023-02-03T07:34:02.814Z,9.75
2023-02-03T07:37:04.321Z,10.20
2023-02-03T07:40:05.914Z,10.50
2023-02-03T07:43:07.367Z,9.30
2023-02-03T07:46:08.951Z,10.20
2023-02-03T07:49:11.557Z,10.65
2023-02-03T07:52:12.978Z,7.55
2023-02-03T07:55:14.426Z,9.48
2023-02-03T07:58:17.013Z,8.53
2023-02-03T08:01:18.690Z,13.85
2023-02-03T08:04:20.846Z,9.98
2023-02-03T08:07:22.259Z,11.95
2023-02-03T08:10:23.919Z,9.52
2023-02-03T08:13:25.568Z,13.43
2023-02-03T08:16:27.014Z,11.27
2023-02-03T08:19:28.508Z,10.53
2023-02-03T08:22:29.996Z,9.57
2023-02-03T08:25:31.562Z,9.37
2023-02-03T08:28:33.002Z,11.07
2023-02-03T08:31:34.798Z,12.60
2023-02-03T08:34:36.485Z,10.95
2023-02-03T08:37:38.097Z,11.57
2023-02-03T08:40:39.494Z,13.10
2023-02-03T08:43:41.457Z,11.32
2023-02-03T08:46:44.100Z,13.50
2023-02-03T08:49:45.805Z,12.88
2023-02-03T08:52:47.282Z,12.45
2023-02-03T08:55:48.823Z,11.82
2023-02-03T08:58:50.292Z,11.77
2023-02-03T09:01:52.639Z,11.05
2023-02-03T09:07:55.480Z,19.13
2023-02-03T09:10:57.026Z,10.65
2023-02-03T09:13:58.415Z,12.83
2023-02-03T09:17:03.156Z,13.63
2023-02-03T09:20:05.182Z,13.20
2023-02-03T09:23:06.697Z,13.70
2023-02-03T09:26:11.089Z,12.40
2023-02-03T09:29:12.714Z,9.52
2023-02-03T09:32:15.483Z,13.32
2023-02-03T09:35:17.383Z,14.45
2023-02-03T09:38:19.050Z,12.20
2023-02-03T09:41:44.134Z,9.32
2023-02-03T09:44:54.631Z,12.38
2023-02-03T09:48:04.535Z,12.68
2023-02-03T09:51:11.000Z,11.90
2023-02-03T09:54:21.338Z,12.85
2023-02-03T09:57:29.929Z,10.95
2023-02-03T10:00:58.060Z,11.20
2023-02-03T10:04:07.059Z,14.20
2023-02-03T10:07:25.154Z,12.60
2023-02-03T10:10:39.195Z,14.75
2023-02-03T10:14:06.938Z,12.98
2023-02-03T10:17:23.209Z,8.73
2023-02-03T10:20:38.633Z,12.15
2023-02-03T10:23:42.430Z,12.98
2023-02-03T10:26:43.891Z,13.48
2023-02-03T10:29:54.291Z,12.43
2023-02-03T10:33:17.664Z,11.38
2023-02-03T10:36:40.327Z,8.98
2023-02-03T10:43:05.629Z,9.60
2023-02-03T10:46:07.207Z,8.32
2023-02-03T10:49:10.761Z,9.10
2023-02-03T10:52:34.532Z,9.27
2023-02-03T10:55:35.994Z,10.57
2023-02-03T10:58:39.289Z,7.23
2023-02-03T11:01:47.118Z,8.05
2023-02-03T11:04:48.570Z,10.15
2023-02-03T11:07:50.561Z,11.37
2023-02-03T11:11:02.775Z,7.22
2023-02-03T11:14:04.128Z,7.82
2023-02-03T11:17:09.087Z,10.10
2023-02-03T11:20:17.395Z,7.82
2023-02-03T11:23:23.464Z,8.60
2023-02-03T11:26:28.895Z,8.00
2023-02-03T11:29:34.194Z,7.72
2023-02-03T11:32:38.223Z,6.75
2023-02-03T11:35:40.486Z,6.95
2023-02-03T11:38:43.572Z,5.75
2023-02-03T11:41:47.123Z,6.20
2023-02-03T11:44:48.497Z,8.85
2023-02-03T11:47:53.883Z,12.70
2023-02-03T11:51:20.688Z,8.80
2023-02-03T11:54:47.620Z,7.93
2023-02-03T11:58:00.199Z,4.93
2023-02-03T12:01:20.615Z,8.95
2023-02-03T12:04:38.892Z,7.95
2023-02-03T12:07:58.410Z,7.25
2023-02-03T12:11:09.757Z,6.18
2023-02-03T12:14:54.647Z,7.53
2023-02-03T12:18:11.185Z,9.10
2023-02-03T12:21:31.915Z,5.20
2023-02-03T12:24:39.302Z,10.20
2023-02-03T12:28:08.877Z,7.25
2023-02-03T12:31:13.483Z,5.97
2023-02-03T12:34:33.070Z,7.15
2023-02-03T12:37:42.289Z,6.05
2023-02-03T12:40:55.213Z,7.55
2023-02-03T12:44:05.338Z,8.02
2023-02-03T12:47:31.929Z,7.18
2023-02-03T12:50:45.975Z,6.35
2023-02-03T12:53:55.146Z,6.82
2023-02-03T12:57:03.868Z,7.05
2023-02-03T13:00:39.396Z,6.05
2023-02-03T13:03:48.541Z,6.28
2023-02-03T13:07:33.404Z,5.45
2023-02-03T13:10:55.128Z,6.30
2023-02-03T13:14:03.825Z,4.67
2023-02-03T13:17:17.917Z,4.03
2023-02-03T13:20:22.391Z,5.03
2023-02-03T13:23:25.301Z,5.78
2023-02-03T13:26:48.598Z,6.40
2023-02-03T13:30:14.932Z,8.35
2023-02-03T13:33:39.563Z,5.10
2023-02-03T13:36:59.235Z,7.63
2023-02-03T13:40:10.809Z,7.25
2023-02-03T13:46:40.356Z,5.90
2023-02-03T13:49:47.601Z,7.03
2023-02-03T13:53:00.129Z,5.40
2023-02-03T13:59:13.915Z,5.07
2023-02-03T14:02:21.414Z,5.30
2023-02-03T14:05:49.451Z,7.07
2023-02-03T14:08:52.407Z,6.35
2023-02-03T14:12:16.662Z,4.88
2023-02-03T14:15:18.293Z,3.87
2023-02-03T14:18:44.978Z,2.90
2023-02-03T14:22:02.741Z,4.05
2023-02-03T14:25:06.794Z,4.57
2023-02-03T14:28:20.038Z,3.95
2023-02-03T14:31:26.318Z,1.83
2023-02-03T14:34:35.100Z,2.22
2023-02-03T14:37:36.507Z,3.15
2023-02-03T14:40:55.433Z,5.00
2023-02-03T14:44:15.633Z,3.35
2023-02-03T14:47:32.558Z,3.30
2023-02-03T14:50:50.980Z,3.85
2023-02-03T14:54:07.539Z,4.35
2023-02-03T14:57:36.915Z,3.15
2023-02-03T15:00:38.440Z,1.48
2023-02-03T15:03:42.217Z,4.57
2023-02-03T15:06:48.311Z,4.05
2023-02-03T15:09:51.490Z,5.93
2023-02-03T15:12:55.293Z,6.30
2023-02-03T15:16:00.072Z,6.80
2023-02-03T15:19:08.056Z,9.07
2023-02-03T15:22:25.265Z,7.32
2023-02-03T15:25:29.522Z,6.20
2023-02-03T15:28:31.283Z,6.43
2023-02-03T15:31:45.844Z,9.00
2023-02-03T15:34:49.507Z,5.70
2023-02-03T15:37:56.064Z,5.68
2023-02-03T15:40:58.893Z,3.80
2023-02-03T15:44:33.149Z,3.72
2023-02-03T15:47:40.487Z,5.30
2023-02-03T15:50:48.939Z,12.90
2023-02-03T15:53:56.977Z,5.05
2023-02-03T15:57:01.822Z,6.90
2023-02-03T16:00:24.804Z,6.07
2023-02-03T16:03:35.282Z,5.18
2023-02-03T16:06:40.357Z,5.53
2023-02-03T16:09:41.860Z,5.55
2023-02-03T16:12:43.627Z,6.57
2023-02-03T16:15:56.184Z,7.00
2023-02-03T16:22:00.391Z,6.78
2023-02-03T16:25:23.597Z,6.03
2023-02-03T16:28:44.693Z,8.43
2023-02-03T16:32:05.202Z,7.63
2023-02-03T16:35:28.950Z,6.72
2023-02-03T16:38:49.303Z,7.72
2023-02-03T16:42:09.621Z,8.90
2023-02-03T16:45:34.285Z,8.32
2023-02-03T16:48:54.571Z,6.70
2023-02-03T16:51:56.167Z,6.15
2023-02-03T16:54:58.149Z,6.65
2023-02-03T16:57:59.736Z,12.32
2023-02-03T17:01:03.757Z,5.83
2023-02-03T17:04:05.381Z,6.25
2023-02-03T17:07:06.827Z,4.80
2023-02-03T17:10:09.498Z,4.85
2023-02-03T17:13:12.088Z,4.05
2023-02-03T17:16:22.871Z,4.47
2023-02-03T17:19:24.447Z,5.60
2023-02-03T17:22:27.065Z,7.13
2023-02-03T17:25:29.129Z,6.93
2023-02-03T17:28:31.051Z,7.35
2023-02-03T17:31:32.868Z,7.38
2023-02-03T17:34:34.899Z,6.47
2023-02-03T17:37:36.443Z,8.60
2023-02-03T17:54:04.905Z,9.10
2023-02-03T17:57:06.544Z,8.90
2023-02-03T18:00:09.462Z,10.18
2023-02-03T18:03:16.511Z,9.63
2023-02-03T18:06:20.683Z,9.37
2023-02-03T18:09:23.353Z,7.93
2023-02-03T18:12:24.857Z,8.50
2023-02-03T18:15:26.233Z,8.60
2023-02-03T18:18:28.937Z,9.38
2023-02-03T18:21:32.232Z,8.80
2023-02-03T18:24:33.734Z,9.48
2023-02-03T18:27:35.393Z,34.20
2023-02-03T18:30:36.918Z,10.65
2023-02-03T18:33:38.644Z,10.27
2023-02-03T18:39:47.134Z,8.95
2023-02-03T18:42:48.984Z,9.50
2023-02-03T18:45:50.770Z,8.10
2023-02-03T18:48:53.177Z,9.65
2023-02-03T18:54:56.369Z,11.95
2023-02-03T18:57:58.834Z,9.77
2023-02-03T19:01:00.609Z,10.50
2023-02-03T19:04:03.268Z,12.02
2023-02-03T19:07:04.747Z,10.88
2023-02-03T19:10:06.481Z,8.23
2023-02-03T19:13:07.918Z,12.93
2023-02-03T19:16:12.934Z,10.43
2023-02-03T19:19:14.836Z,10.48
2023-02-03T19:22:16.240Z,8.88
2023-02-03T19:25:17.650Z,8.50
2023-02-03T19:28:30.008Z,16.13
2023-02-03T19:31:32.393Z,11.15
2023-02-03T19:34:33.962Z,10.35
2023-02-03T19:37:35.482Z,10.20
2023-02-03T19:40:36.901Z,8.60
2023-02-03T19:43:38.332Z,8.67
2023-02-03T19:46:41.984Z,10.33
2023-02-03T19:49:43.586Z,9.88
2023-02-03T19:52:45.061Z,9.00
2023-02-03T19:55:46.639Z,10.97
2023-02-03T19:58:51.939Z,10.48
2023-02-03T20:01:57.975Z,10.38
2023-02-03T20:05:01.041Z,7.55
2023-02-03T20:08:03.338Z,9.93
2023-02-03T20:11:05.127Z,8.65
2023-02-03T20:14:06.648Z,8.45
2023-02-03T20:17:08.219Z,8.80
2023-02-03T20:20:10.030Z,8.93
2023-02-03T20:23:11.472Z,10.35
2023-02-03T20:26:14.218Z,8.90
2023-02-03T20:29:15.752Z,7.88
2023-02-03T20:32:17.211Z,8.33
2023-02-03T20:35:19.749Z,8.63
2023-02-03T20:38:21.268Z,7.40
2023-02-03T20:41:22.727Z,9.73
2023-02-03T20:44:24.232Z,8.63
2023-02-03T20:47:26.182Z,9.57
2023-02-03T20:50:40.447Z,7.35
2023-02-03T20:53:44.257Z,8.23
2023-02-03T20:56:45.727Z,8.32
2023-02-03T20:59:47.561Z,8.57
2023-02-03T21:03:08.457Z,6.95
2023-02-03T21:06:18.559Z,8.40
2023-02-03T21:09:22.720Z,8.35
2023-02-03T21:12:25.402Z,8.25
2023-02-03T21:15:29.520Z,9.30
2023-02-03T21:18:39.057Z,10.02
2023-02-03T21:21:42.480Z,9.57
2023-02-03T21:25:23.433Z,8.13
2023-02-03T21:28:27.779Z,8.98
2023-02-03T21:31:34.684Z,7.97
2023-02-03T21:34:37.515Z,8.90
2023-02-03T21:37:41.257Z,7.53
2023-02-03T21:40:42.711Z,9.35
2023-02-03T21:43:46.938Z,8.53
2023-02-03T21:46:48.403Z,9.45
2023-02-03T21:49:49.856Z,9.03
2023-02-03T21:52:51.307Z,8.73
2023-02-03T21:55:52.993Z,9.13
2023-02-03T21:58:58.740Z,8.35
2023-02-03T22:02:00.691Z,8.43
2023-02-03T22:05:03.701Z,11.50
2023-02-03T22:08:19.703Z,11.02
2023-02-03T22:11:23.674Z,9.20
2023-02-03T22:14:25.063Z,10.07
2023-02-03T22:17:26.495Z,9.90
2023-02-03T22:20:28.123Z,7.70
2023-02-03T22:23:29.725Z,10.07
2023-02-03T22:26:31.190Z,10.90
2023-02-03T22:29:32.653Z,10.87
2023-02-03T22:32:34.136Z,9.90
2023-02-03T22:35:35.738Z,7.50
2023-02-03T22:38:38.536Z,5.78
2023-02-03T22:41:39.951Z,6.57
2023-02-03T22:44:41.372Z,7.47
2023-02-03T22:47:42.766Z,7.13
2023-02-03T22:50:44.150Z,8.82
2023-02-03T22:53:45.674Z,5.80
2023-02-03T22:56:47.105Z,6.63
2023-02-03T22:59:48.502Z,6.78
2023-02-03T23:02:50.564Z,6.68
2023-02-03T23:05:52.026Z,6.40
2023-02-03T23:08:55.312Z,6.82
2023-02-03T23:11:56.787Z,7.63
2023-02-03T23:14:58.335Z,7.17
2023-02-03T23:17:59.826Z,6.87
2023-02-03T23:21:01.245Z,5.27
2023-02-03T23:24:02.822Z,5.95
2023-02-03T23:27:04.279Z,7.25
2023-02-03T23:30:06.409Z,5.67
2023-02-03T23:33:08.087Z,6.25
2023-02-03T23:36:09.590Z,7.97
2023-02-03T23:39:10.968Z,6.47
2023-02-03T23:42:12.456Z,6.28
2023-02-03T23:45:14.033Z,6.17
2023-02-03T23:48:17.654Z,5.53
2023-02-03T23:51:19.066Z,5.00
2023-02-03T23:54:20.475Z,4.40
2023-02-03T23:57:21.877Z,5.15
